sensor_id;sensor_type;location;lat;lon;timestamp;P1;durP1;ratioP1;P2;durP2;ratioP2
23370;SDS011;11858;51.056;3.712;2023-04-07T00:01:48;0.30;;;0.30;;
23370;SDS011;11858;51.056;3.712;2023-04-07T00:04:14;0.50;;;0.50;;
23370;SDS011;11858;51.056;3.712;2023-04-07T00:06:40;0.40;;;0.40;;
23370;SDS011;11858;51.056;3.712;2023-04-07T00:09:07;0.40;;;0.40;;
23370;SDS011;11858;51.056;3.712;2023-04-07T00:11:34;0.40;;;0.40;;
23370;SDS011;11858;51.056;3.712;2023-04-07T00:14:00;0.40;;;0.40;;
23370;SDS011;11858;51.056;3.712;2023-04-07T00:16:26;0.40;;;0.40;;
23370;SDS011;11858;51.056;3.712;2023-04-07T00:18:52;0.40;;;0.40;;
23370;SDS011;11858;51.056;3.712;2023-04-07T00:21:17;0.50;;;0.50;;
23370;SDS011;11858;51.056;3.712;2023-04-07T00:23:43;0.40;;;0.40;;
23370;SDS011;11858;51.056;3.712;2023-04-07T00:26:10;0.30;;;0.30;;
23370;SDS011;11858;51.056;3.712;2023-04-07T00:28:36;0.30;;;0.30;;
23370;SDS011;11858;51.056;3.712;2023-04-07T00:31:01;0.40;;;0.40;;
23370;SDS011;11858;51.056;3.712;2023-04-07T00:33:27;0.40;;;0.40;;
23370;SDS011;11858;51.056;3.712;2023-04-07T00:35:53;0.40;;;0.40;;
23370;SDS011;11858;51.056;3.712;2023-04-07T00:38:19;0.30;;;0.30;;
23370;SDS011;11858;51.056;3.712;2023-04-07T00:40:45;0.80;;;0.80;;
23370;SDS011;11858;51.056;3.712;2023-04-07T00:43:11;0.57;;;0.57;;
23370;SDS011;11858;51.056;3.712;2023-04-07T00:45:37;1.88;;;0.80;;
23370;SDS011;11858;51.056;3.712;2023-04-07T00:48:03;0.50;;;0.50;;
23370;SDS011;11858;51.056;3.712;2023-04-07T00:50:29;1.95;;;1.85;;
23370;SDS011;11858;51.056;3.712;2023-04-07T00:52:55;0.50;;;0.50;;
23370;SDS011;11858;51.056;3.712;2023-04-07T00:55:21;0.40;;;0.40;;
23370;SDS011;11858;51.056;3.712;2023-04-07T00:57:47;0.50;;;0.50;;
23370;SDS011;11858;51.056;3.712;2023-04-07T01:00:13;0.47;;;0.47;;
23370;SDS011;11858;51.056;3.712;2023-04-07T01:07:57;0.40;;;0.40;;
23370;SDS011;11858;51.056;3.712;2023-04-07T01:10:34;0.40;;;0.40;;
23370;SDS011;11858;51.056;3.712;2023-04-07T01:13:21;0.35;;;0.35;;
23370;SDS011;11858;51.056;3.712;2023-04-07T01:15:53;0.32;;;0.32;;
23370;SDS011;11858;51.056;3.712;2023-04-07T01:18:23;0.57;;;0.57;;
23370;SDS011;11858;51.056;3.712;2023-04-07T01:20:55;0.40;;;0.40;;
23370;SDS011;11858;51.056;3.712;2023-04-07T01:26:13;0.40;;;0.40;;
23370;SDS011;11858;51.056;3.712;2023-04-07T01:31:08;0.68;;;0.68;;
23370;SDS011;11858;51.056;3.712;2023-04-07T01:33:36;0.40;;;0.40;;
23370;SDS011;11858;51.056;3.712;2023-04-07T01:36:04;0.40;;;0.40;;
23370;SDS011;11858;51.056;3.712;2023-04-07T01:38:32;0.40;;;0.40;;
23370;SDS011;11858;51.056;3.712;2023-04-07T01:40:59;0.38;;;0.38;;
23370;SDS011;11858;51.056;3.712;2023-04-07T01:43:26;0.47;;;0.47;;
23370;SDS011;11858;51.056;3.712;2023-04-07T01:45:53;0.43;;;0.43;;
23370;SDS011;11858;51.056;3.712;2023-04-07T01:48:20;0.40;;;0.40;;
23370;SDS011;11858;51.056;3.712;2023-04-07T01:50:46;0.50;;;0.50;;
23370;SDS011;11858;51.056;3.712;2023-04-07T01:53:14;0.40;;;0.40;;
23370;SDS011;11858;51.056;3.712;2023-04-07T01:55:41;0.47;;;0.47;;
23370;SDS011;11858;51.056;3.712;2023-04-07T01:58:08;0.43;;;0.43;;
23370;SDS011;11858;51.056;3.712;2023-04-07T02:00:34;0.32;;;0.32;;
23370;SDS011;11858;51.056;3.712;2023-04-07T02:03:22;0.40;;;0.40;;
23370;SDS011;11858;51.056;3.712;2023-04-07T02:05:54;0.40;;;0.40;;
23370;SDS011;11858;51.056;3.712;2023-04-07T02:08:25;0.40;;;0.40;;
23370;SDS011;11858;51.056;3.712;2023-04-07T02:10:52;0.50;;;0.50;;
23370;SDS011;11858;51.056;3.712;2023-04-07T02:13:21;0.35;;;0.35;;
23370;SDS011;11858;51.056;3.712;2023-04-07T02:15:48;0.40;;;0.40;;
23370;SDS011;11858;51.056;3.712;2023-04-07T02:18:15;0.40;;;0.40;;
23370;SDS011;11858;51.056;3.712;2023-04-07T02:20:44;0.57;;;0.57;;
23370;SDS011;11858;51.056;3.712;2023-04-07T02:23:11;0.95;;;0.90;;
23370;SDS011;11858;51.056;3.712;2023-04-07T02:25:37;0.70;;;0.65;;
23370;SDS011;11858;51.056;3.712;2023-04-07T02:28:03;0.40;;;0.40;;
23370;SDS011;11858;51.056;3.712;2023-04-07T02:30:30;0.55;;;0.55;;
23370;SDS011;11858;51.056;3.712;2023-04-07T02:32:56;0.40;;;0.40;;
23370;SDS011;11858;51.056;3.712;2023-04-07T02:35:22;0.32;;;0.32;;
23370;SDS011;11858;51.056;3.712;2023-04-07T02:37:48;0.50;;;0.50;;
23370;SDS011;11858;51.056;3.712;2023-04-07T02:40:14;0.50;;;0.50;;
23370;SDS011;11858;51.056;3.712;2023-04-07T02:42:40;0.45;;;0.45;;
23370;SDS011;11858;51.056;3.712;2023-04-07T02:45:07;0.40;;;0.40;;
23370;SDS011;11858;51.056;3.712;2023-04-07T02:47:33;0.57;;;0.57;;
23370;SDS011;11858;51.056;3.712;2023-04-07T02:50:00;0.45;;;0.45;;
23370;SDS011;11858;51.056;3.712;2023-04-07T02:52:26;0.45;;;0.45;;
23370;SDS011;11858;51.056;3.712;2023-04-07T02:54:52;0.47;;;0.47;;
23370;SDS011;11858;51.056;3.712;2023-04-07T02:57:18;0.40;;;0.40;;
23370;SDS011;11858;51.056;3.712;2023-04-07T02:59:43;0.40;;;0.40;;
23370;SDS011;11858;51.056;3.712;2023-04-07T03:02:09;0.40;;;0.40;;
23370;SDS011;11858;51.056;3.712;2023-04-07T03:04:35;0.45;;;0.45;;
23370;SDS011;11858;51.056;3.712;2023-04-07T03:07:01;0.50;;;0.50;;
23370;SDS011;11858;51.056;3.712;2023-04-07T03:09:27;0.50;;;0.50;;
23370;SDS011;11858;51.056;3.712;2023-04-07T03:11:52;0.40;;;0.40;;
23370;SDS011;11858;51.056;3.712;2023-04-07T03:14:18;0.82;;;0.82;;
23370;SDS011;11858;51.056;3.712;2023-04-07T03:16:44;0.50;;;0.50;;
23370;SDS011;11858;51.056;3.712;2023-04-07T03:19:10;0.40;;;0.40;;
23370;SDS011;11858;51.056;3.712;2023-04-07T03:21:36;0.43;;;0.43;;
23370;SDS011;11858;51.056;3.712;2023-04-07T03:24:03;0.40;;;0.40;;
23370;SDS011;11858;51.056;3.712;2023-04-07T03:26:32;0.40;;;0.40;;
23370;SDS011;11858;51.056;3.712;2023-04-07T03:28:58;0.40;;;0.40;;
23370;SDS011;11858;51.056;3.712;2023-04-07T03:31:24;0.40;;;0.40;;
23370;SDS011;11858;51.056;3.712;2023-04-07T03:33:50;0.50;;;0.50;;
23370;SDS011;11858;51.056;3.712;2023-04-07T03:36:16;0.40;;;0.40;;
23370;SDS011;11858;51.056;3.712;2023-04-07T03:38:42;0.45;;;0.45;;
23370;SDS011;11858;51.056;3.712;2023-04-07T03:41:09;0.40;;;0.40;;
23370;SDS011;11858;51.056;3.712;2023-04-07T03:43:35;0.40;;;0.40;;
23370;SDS011;11858;51.056;3.712;2023-04-07T03:46:01;0.40;;;0.40;;
23370;SDS011;11858;51.056;3.712;2023-04-07T03:48:26;0.40;;;0.40;;
23370;SDS011;11858;51.056;3.712;2023-04-07T03:50:52;0.40;;;0.40;;
23370;SDS011;11858;51.056;3.712;2023-04-07T03:53:18;0.30;;;0.30;;
23370;SDS011;11858;51.056;3.712;2023-04-07T03:55:44;0.40;;;0.40;;
23370;SDS011;11858;51.056;3.712;2023-04-07T03:58:10;0.50;;;0.50;;
23370;SDS011;11858;51.056;3.712;2023-04-07T04:00:36;0.40;;;0.40;;
23370;SDS011;11858;51.056;3.712;2023-04-07T04:03:01;0.40;;;0.40;;
23370;SDS011;11858;51.056;3.712;2023-04-07T04:05:27;0.40;;;0.40;;
23370;SDS011;11858;51.056;3.712;2023-04-07T04:07:53;0.45;;;0.45;;
23370;SDS011;11858;51.056;3.712;2023-04-07T04:10:19;0.40;;;0.40;;
23370;SDS011;11858;51.056;3.712;2023-04-07T04:12:45;0.40;;;0.40;;
23370;SDS011;11858;51.056;3.712;2023-04-07T04:15:12;0.40;;;0.40;;
23370;SDS011;11858;51.056;3.712;2023-04-07T04:17:38;0.40;;;0.40;;
23370;SDS011;11858;51.056;3.712;2023-04-07T04:20:04;0.40;;;0.40;;
23370;SDS011;11858;51.056;3.712;2023-04-07T04:22:30;0.50;;;0.50;;
23370;SDS011;11858;51.056;3.712;2023-04-07T04:24:56;0.43;;;0.43;;
23370;SDS011;11858;51.056;3.712;2023-04-07T04:27:23;0.50;;;0.50;;
23370;SDS011;11858;51.056;3.712;2023-04-07T04:29:48;0.40;;;0.40;;
23370;SDS011;11858;51.056;3.712;2023-04-07T04:32:14;0.50;;;0.50;;
23370;SDS011;11858;51.056;3.712;2023-04-07T04:34:41;0.40;;;0.40;;
23370;SDS011;11858;51.056;3.712;2023-04-07T04:37:08;0.40;;;0.40;;
23370;SDS011;11858;51.056;3.712;2023-04-07T04:39:33;0.95;;;0.90;;
23370;SDS011;11858;51.056;3.712;2023-04-07T04:41:59;0.40;;;0.40;;
23370;SDS011;11858;51.056;3.712;2023-04-07T04:44:26;0.40;;;0.40;;
23370;SDS011;11858;51.056;3.712;2023-04-07T04:46:53;0.40;;;0.40;;
23370;SDS011;11858;51.056;3.712;2023-04-07T04:49:18;0.40;;;0.40;;
23370;SDS011;11858;51.056;3.712;2023-04-07T04:51:44;0.50;;;0.50;;
23370;SDS011;11858;51.056;3.712;2023-04-07T04:54:10;0.82;;;0.82;;
23370;SDS011;11858;51.056;3.712;2023-04-07T04:56:36;0.55;;;0.55;;
23370;SDS011;11858;51.056;3.712;2023-04-07T04:59:02;0.80;;;0.80;;
23370;SDS011;11858;51.056;3.712;2023-04-07T05:01:29;0.82;;;0.82;;
23370;SDS011;11858;51.056;3.712;2023-04-07T05:03:55;0.47;;;0.47;;
23370;SDS011;11858;51.056;3.712;2023-04-07T05:06:20;0.50;;;0.50;;
23370;SDS011;11858;51.056;3.712;2023-04-07T05:08:46;0.50;;;0.50;;
23370;SDS011;11858;51.056;3.712;2023-04-07T05:11:12;7.97;;;5.45;;
23370;SDS011;11858;51.056;3.712;2023-04-07T05:13:38;0.40;;;0.40;;
23370;SDS011;11858;51.056;3.712;2023-04-07T05:16:04;0.40;;;0.40;;
23370;SDS011;11858;51.056;3.712;2023-04-07T05:18:30;0.50;;;0.50;;
23370;SDS011;11858;51.056;3.712;2023-04-07T05:20:56;0.40;;;0.40;;
23370;SDS011;11858;51.056;3.712;2023-04-07T05:23:22;0.50;;;0.50;;
23370;SDS011;11858;51.056;3.712;2023-04-07T05:25:48;0.50;;;0.50;;
23370;SDS011;11858;51.056;3.712;2023-04-07T05:28:14;0.50;;;0.50;;
23370;SDS011;11858;51.056;3.712;2023-04-07T05:30:40;0.50;;;0.50;;
23370;SDS011;11858;51.056;3.712;2023-04-07T05:33:06;0.55;;;0.55;;
23370;SDS011;11858;51.056;3.712;2023-04-07T05:35:32;0.40;;;0.40;;
23370;SDS011;11858;51.056;3.712;2023-04-07T05:37:57;0.80;;;0.80;;
23370;SDS011;11858;51.056;3.712;2023-04-07T05:40:24;0.50;;;0.50;;
23370;SDS011;11858;51.056;3.712;2023-04-07T05:42:50;0.50;;;0.50;;
23370;SDS011;11858;51.056;3.712;2023-04-07T05:45:16;0.57;;;0.57;;
23370;SDS011;11858;51.056;3.712;2023-04-07T05:47:42;0.40;;;0.40;;
23370;SDS011;11858;51.056;3.712;2023-04-07T05:50:09;0.38;;;0.38;;
23370;SDS011;11858;51.056;3.712;2023-04-07T05:52:36;0.40;;;0.40;;
23370;SDS011;11858;51.056;3.712;2023-04-07T05:55:02;1.25;;;1.15;;
23370;SDS011;11858;51.056;3.712;2023-04-07T05:57:28;0.40;;;0.40;;
23370;SDS011;11858;51.056;3.712;2023-04-07T05:59:53;0.38;;;0.38;;
23370;SDS011;11858;51.056;3.712;2023-04-07T06:02:19;0.40;;;0.40;;
23370;SDS011;11858;51.056;3.712;2023-04-07T06:04:45;0.40;;;0.40;;
23370;SDS011;11858;51.056;3.712;2023-04-07T06:07:11;0.38;;;0.38;;
23370;SDS011;11858;51.056;3.712;2023-04-07T06:09:37;0.95;;;0.95;;
23370;SDS011;11858;51.056;3.712;2023-04-07T06:12:02;0.60;;;0.60;;
23370;SDS011;11858;51.056;3.712;2023-04-07T06:14:30;0.40;;;0.40;;
23370;SDS011;11858;51.056;3.712;2023-04-07T06:16:56;0.40;;;0.40;;
23370;SDS011;11858;51.056;3.712;2023-04-07T06:19:22;0.60;;;0.60;;
23370;SDS011;11858;51.056;3.712;2023-04-07T06:21:48;0.60;;;0.60;;
23370;SDS011;11858;51.056;3.712;2023-04-07T06:24:13;0.50;;;0.50;;
23370;SDS011;11858;51.056;3.712;2023-04-07T06:26:39;0.50;;;0.50;;
23370;SDS011;11858;51.056;3.712;2023-04-07T06:29:05;1.17;;;1.08;;
23370;SDS011;11858;51.056;3.712;2023-04-07T06:31:31;1.27;;;1.27;;
23370;SDS011;11858;51.056;3.712;2023-04-07T06:33:57;0.50;;;0.50;;
23370;SDS011;11858;51.056;3.712;2023-04-07T06:36:22;1.23;;;1.23;;
23370;SDS011;11858;51.056;3.712;2023-04-07T06:38:49;2.88;;;1.60;;
23370;SDS011;11858;51.056;3.712;2023-04-07T06:41:15;1.98;;;1.23;;
23370;SDS011;11858;51.056;3.712;2023-04-07T06:43:42;3.25;;;2.83;;
23370;SDS011;11858;51.056;3.712;2023-04-07T06:46:09;6.40;;;2.78;;
23370;SDS011;11858;51.056;3.712;2023-04-07T06:48:34;1.67;;;1.35;;
23370;SDS011;11858;51.056;3.712;2023-04-07T06:51:00;2.60;;;1.80;;
23370;SDS011;11858;51.056;3.712;2023-04-07T06:53:26;4.97;;;1.80;;
23370;SDS011;11858;51.056;3.712;2023-04-07T06:56:01;0.50;;;0.50;;
23370;SDS011;11858;51.056;3.712;2023-04-07T06:58:31;0.43;;;0.43;;
23370;SDS011;11858;51.056;3.712;2023-04-07T07:00:56;0.70;;;0.70;;
23370;SDS011;11858;51.056;3.712;2023-04-07T07:03:22;0.70;;;0.70;;
23370;SDS011;11858;51.056;3.712;2023-04-07T07:05:51;0.85;;;0.85;;
23370;SDS011;11858;51.056;3.712;2023-04-07T07:08:16;0.52;;;0.52;;
23370;SDS011;11858;51.056;3.712;2023-04-07T07:10:42;0.50;;;0.50;;
23370;SDS011;11858;51.056;3.712;2023-04-07T07:13:08;0.40;;;0.40;;
23370;SDS011;11858;51.056;3.712;2023-04-07T07:15:33;0.40;;;0.40;;
23370;SDS011;11858;51.056;3.712;2023-04-07T07:17:59;1.13;;;1.10;;
23370;SDS011;11858;51.056;3.712;2023-04-07T07:20:25;1.05;;;0.95;;
23370;SDS011;11858;51.056;3.712;2023-04-07T07:22:51;0.90;;;0.70;;
23370;SDS011;11858;51.056;3.712;2023-04-07T07:25:17;1.30;;;1.10;;
23370;SDS011;11858;51.056;3.712;2023-04-07T07:27:43;0.40;;;0.40;;
23370;SDS011;11858;51.056;3.712;2023-04-07T07:30:09;1.65;;;0.90;;
23370;SDS011;11858;51.056;3.712;2023-04-07T07:32:35;0.50;;;0.50;;
23370;SDS011;11858;51.056;3.712;2023-04-07T07:35:01;1.13;;;0.88;;
23370;SDS011;11858;51.056;3.712;2023-04-07T07:37:27;0.70;;;0.70;;
23370;SDS011;11858;51.056;3.712;2023-04-07T07:39:53;0.50;;;0.50;;
23370;SDS011;11858;51.056;3.712;2023-04-07T07:42:20;0.70;;;0.70;;
23370;SDS011;11858;51.056;3.712;2023-04-07T07:44:46;1.77;;;1.65;;
23370;SDS011;11858;51.056;3.712;2023-04-07T07:47:12;0.40;;;0.40;;
23370;SDS011;11858;51.056;3.712;2023-04-07T07:49:39;1.23;;;1.15;;
23370;SDS011;11858;51.056;3.712;2023-04-07T07:52:05;1.17;;;1.17;;
23370;SDS011;11858;51.056;3.712;2023-04-07T07:54:31;2.67;;;2.40;;
23370;SDS011;11858;51.056;3.712;2023-04-07T07:56:57;4.03;;;3.83;;
23370;SDS011;11858;51.056;3.712;2023-04-07T07:59:23;4.15;;;3.95;;
23370;SDS011;11858;51.056;3.712;2023-04-07T08:01:49;2.90;;;2.80;;
23370;SDS011;11858;51.056;3.712;2023-04-07T08:04:15;6.13;;;5.82;;
23370;SDS011;11858;51.056;3.712;2023-04-07T08:06:40;7.10;;;6.75;;
23370;SDS011;11858;51.056;3.712;2023-04-07T08:09:06;7.93;;;7.53;;
23370;SDS011;11858;51.056;3.712;2023-04-07T08:11:32;10.63;;;10.02;;
23370;SDS011;11858;51.056;3.712;2023-04-07T08:13:58;9.45;;;8.95;;
23370;SDS011;11858;51.056;3.712;2023-04-07T08:16:24;18.45;;;16.95;;
23370;SDS011;11858;51.056;3.712;2023-04-07T08:18:50;18.27;;;17.08;;
23370;SDS011;11858;51.056;3.712;2023-04-07T08:21:16;18.17;;;16.90;;
23370;SDS011;11858;51.056;3.712;2023-04-07T08:23:44;18.13;;;17.02;;
23370;SDS011;11858;51.056;3.712;2023-04-07T08:26:10;17.77;;;16.67;;
23370;SDS011;11858;51.056;3.712;2023-04-07T08:28:36;16.05;;;15.05;;
23370;SDS011;11858;51.056;3.712;2023-04-07T08:31:01;15.18;;;14.27;;
23370;SDS011;11858;51.056;3.712;2023-04-07T08:33:27;12.02;;;11.32;;
23370;SDS011;11858;51.056;3.712;2023-04-07T08:35:53;12.25;;;11.55;;
23370;SDS011;11858;51.056;3.712;2023-04-07T08:38:19;8.50;;;8.10;;
23370;SDS011;11858;51.056;3.712;2023-04-07T08:40:45;8.55;;;8.15;;
23370;SDS011;11858;51.056;3.712;2023-04-07T08:43:12;7.40;;;7.00;;
23370;SDS011;11858;51.056;3.712;2023-04-07T08:45:40;4.70;;;4.50;;
23370;SDS011;11858;51.056;3.712;2023-04-07T08:48:10;5.35;;;5.05;;
23370;SDS011;11858;51.056;3.712;2023-04-07T08:50:42;5.05;;;4.75;;
23370;SDS011;11858;51.056;3.712;2023-04-07T08:53:09;3.95;;;3.75;;
23370;SDS011;11858;51.056;3.712;2023-04-07T08:55:39;5.68;;;5.38;;
23370;SDS011;11858;51.056;3.712;2023-04-07T08:58:07;4.90;;;4.65;;
23370;SDS011;11858;51.056;3.712;2023-04-07T09:00:37;4.03;;;3.83;;
23370;SDS011;11858;51.056;3.712;2023-04-07T09:03:09;4.18;;;3.97;;
23370;SDS011;11858;51.056;3.712;2023-04-07T09:05:35;3.95;;;3.75;;
23370;SDS011;11858;51.056;3.712;2023-04-07T09:08:02;4.53;;;4.32;;
23370;SDS011;11858;51.056;3.712;2023-04-07T09:10:28;3.28;;;3.17;;
23370;SDS011;11858;51.056;3.712;2023-04-07T09:12:54;2.90;;;2.80;;
23370;SDS011;11858;51.056;3.712;2023-04-07T09:15:23;4.00;;;3.80;;
23370;SDS011;11858;51.056;3.712;2023-04-07T09:17:50;5.32;;;5.13;;
23370;SDS011;11858;51.056;3.712;2023-04-07T09:20:16;10.38;;;5.10;;
23370;SDS011;11858;51.056;3.712;2023-04-07T09:22:42;4.78;;;4.57;;
23370;SDS011;11858;51.056;3.712;2023-04-07T09:25:16;6.30;;;6.00;;
23370;SDS011;11858;51.056;3.712;2023-04-07T09:27:55;6.60;;;6.30;;
23370;SDS011;11858;51.056;3.712;2023-04-07T09:30:26;7.32;;;6.93;;
23370;SDS011;11858;51.056;3.712;2023-04-07T09:32:53;9.80;;;9.30;;
23370;SDS011;11858;51.056;3.712;2023-04-07T09:35:19;7.80;;;7.40;;
23370;SDS011;11858;51.056;3.712;2023-04-07T09:38:06;8.55;;;8.15;;
23370;SDS011;11858;51.056;3.712;2023-04-07T09:40:33;6.25;;;5.95;;
23370;SDS011;11858;51.056;3.712;2023-04-07T09:43:00;8.68;;;8.27;;
23370;SDS011;11858;51.056;3.712;2023-04-07T09:45:28;9.43;;;8.93;;
23370;SDS011;11858;51.056;3.712;2023-04-07T09:48:06;7.82;;;7.43;;
23370;SDS011;11858;51.056;3.712;2023-04-07T09:50:41;8.20;;;7.80;;
23370;SDS011;11858;51.056;3.712;2023-04-07T09:53:13;6.50;;;6.18;;
23370;SDS011;11858;51.056;3.712;2023-04-07T09:55:40;5.57;;;5.28;;
23370;SDS011;11858;51.056;3.712;2023-04-07T09:58:08;5.53;;;5.22;;
23370;SDS011;11858;51.056;3.712;2023-04-07T10:00:37;3.17;;;3.08;;
23370;SDS011;11858;51.056;3.712;2023-04-07T10:03:05;3.20;;;3.10;;
23370;SDS011;11858;51.056;3.712;2023-04-07T10:05:31;2.00;;;1.90;;
23370;SDS011;11858;51.056;3.712;2023-04-07T10:08:00;2.30;;;2.20;;
23370;SDS011;11858;51.056;3.712;2023-04-07T10:10:26;2.22;;;2.13;;
23370;SDS011;11858;51.056;3.712;2023-04-07T10:12:54;3.10;;;3.00;;
23370;SDS011;11858;51.056;3.712;2023-04-07T10:15:21;2.92;;;2.75;;
23370;SDS011;11858;51.056;3.712;2023-04-07T10:17:47;2.90;;;2.80;;
23370;SDS011;11858;51.056;3.712;2023-04-07T10:20:15;3.60;;;3.40;;
23370;SDS011;11858;51.056;3.712;2023-04-07T10:22:44;4.60;;;4.40;;
23370;SDS011;11858;51.056;3.712;2023-04-07T10:25:13;4.43;;;4.22;;
23370;SDS011;11858;51.056;3.712;2023-04-07T10:27:50;5.87;;;5.57;;
23370;SDS011;11858;51.056;3.712;2023-04-07T10:30:38;4.88;;;4.68;;
23370;SDS011;11858;51.056;3.712;2023-04-07T10:33:05;5.43;;;5.13;;
23370;SDS011;11858;51.056;3.712;2023-04-07T10:36:05;7.13;;;6.60;;
23370;SDS011;11858;51.056;3.712;2023-04-07T10:38:30;5.70;;;5.40;;
23370;SDS011;11858;51.056;3.712;2023-04-07T10:40:56;3.40;;;3.30;;
23370;SDS011;11858;51.056;3.712;2023-04-07T10:43:38;5.20;;;5.00;;
23370;SDS011;11858;51.056;3.712;2023-04-07T10:46:06;7.90;;;7.50;;
23370;SDS011;11858;51.056;3.712;2023-04-07T10:48:32;9.48;;;8.88;;
23370;SDS011;11858;51.056;3.712;2023-04-07T10:53:30;13.10;;;12.30;;
23370;SDS011;11858;51.056;3.712;2023-04-07T10:55:56;13.40;;;12.60;;
23370;SDS011;11858;51.056;3.712;2023-04-07T10:58:23;16.55;;;14.95;;
23370;SDS011;11858;51.056;3.712;2023-04-07T11:03:32;17.65;;;16.55;;
23370;SDS011;11858;51.056;3.712;2023-04-07T11:06:02;18.60;;;17.40;;
23370;SDS011;11858;51.056;3.712;2023-04-07T11:08:39;19.27;;;17.80;;
23370;SDS011;11858;51.056;3.712;2023-04-07T11:11:07;18.13;;;17.00;;
23370;SDS011;11858;51.056;3.712;2023-04-07T11:13:44;18.42;;;17.23;;
23370;SDS011;11858;51.056;3.712;2023-04-07T11:16:12;17.90;;;16.80;;
23370;SDS011;11858;51.056;3.712;2023-04-07T11:18:43;18.70;;;17.50;;
23370;SDS011;11858;51.056;3.712;2023-04-07T11:21:10;19.95;;;18.65;;
23370;SDS011;11858;51.056;3.712;2023-04-07T11:26:06;19.58;;;18.27;;
23370;SDS011;11858;51.056;3.712;2023-04-07T11:28:33;19.50;;;18.20;;
23370;SDS011;11858;51.056;3.712;2023-04-07T11:31:01;18.60;;;17.40;;
23370;SDS011;11858;51.056;3.712;2023-04-07T11:33:29;18.77;;;17.58;;
23370;SDS011;11858;51.056;3.712;2023-04-07T11:35:56;18.50;;;17.30;;
23370;SDS011;11858;51.056;3.712;2023-04-07T11:38:30;22.73;;;20.92;;
23370;SDS011;11858;51.056;3.712;2023-04-07T11:41:09;18.90;;;17.70;;
23370;SDS011;11858;51.056;3.712;2023-04-07T11:43:36;19.35;;;18.05;;
23370;SDS011;11858;51.056;3.712;2023-04-07T11:46:15;18.55;;;17.35;;
23370;SDS011;11858;51.056;3.712;2023-04-07T11:48:43;19.25;;;17.95;;
23370;SDS011;11858;51.056;3.712;2023-04-07T11:51:16;17.58;;;16.48;;
23370;SDS011;11858;51.056;3.712;2023-04-07T11:53:53;18.15;;;17.00;;
23370;SDS011;11858;51.056;3.712;2023-04-07T11:56:19;18.33;;;17.13;;
23370;SDS011;11858;51.056;3.712;2023-04-07T11:58:49;17.98;;;16.88;;
23370;SDS011;11858;51.056;3.712;2023-04-07T12:01:18;17.50;;;16.40;;
23370;SDS011;11858;51.056;3.712;2023-04-07T12:04:00;18.23;;;17.05;;
23370;SDS011;11858;51.056;3.712;2023-04-07T12:06:28;16.95;;;15.95;;
23370;SDS011;11858;51.056;3.712;2023-04-07T12:08:57;16.80;;;15.70;;
23370;SDS011;11858;51.056;3.712;2023-04-07T12:11:23;18.20;;;16.90;;
23370;SDS011;11858;51.056;3.712;2023-04-07T12:13:49;17.85;;;16.75;;
23370;SDS011;11858;51.056;3.712;2023-04-07T12:16:15;16.67;;;15.68;;
23370;SDS011;11858;51.056;3.712;2023-04-07T12:18:42;16.88;;;15.88;;
23370;SDS011;11858;51.056;3.712;2023-04-07T12:21:07;15.75;;;14.85;;
23370;SDS011;11858;51.056;3.712;2023-04-07T12:23:33;16.75;;;15.75;;
23370;SDS011;11858;51.056;3.712;2023-04-07T12:25:59;16.38;;;15.38;;
23370;SDS011;11858;51.056;3.712;2023-04-07T12:28:25;16.98;;;15.88;;
23370;SDS011;11858;51.056;3.712;2023-04-07T12:30:51;16.98;;;15.98;;
23370;SDS011;11858;51.056;3.712;2023-04-07T12:33:17;16.88;;;15.88;;
23370;SDS011;11858;51.056;3.712;2023-04-07T12:35:43;17.95;;;16.77;;
23370;SDS011;11858;51.056;3.712;2023-04-07T12:38:09;16.75;;;15.75;;
23370;SDS011;11858;51.056;3.712;2023-04-07T12:40:35;17.23;;;16.13;;
23370;SDS011;11858;51.056;3.712;2023-04-07T12:43:01;17.52;;;16.42;;
23370;SDS011;11858;51.056;3.712;2023-04-07T12:45:28;19.02;;;17.83;;
23370;SDS011;11858;51.056;3.712;2023-04-07T12:47:55;17.85;;;16.75;;
23370;SDS011;11858;51.056;3.712;2023-04-07T12:50:21;17.00;;;16.00;;
23370;SDS011;11858;51.056;3.712;2023-04-07T12:52:49;17.52;;;16.42;;
23370;SDS011;11858;51.056;3.712;2023-04-07T12:55:15;17.67;;;16.48;;
23370;SDS011;11858;51.056;3.712;2023-04-07T12:57:41;17.30;;;16.23;;
23370;SDS011;11858;51.056;3.712;2023-04-07T13:00:08;17.80;;;16.60;;
23370;SDS011;11858;51.056;3.712;2023-04-07T13:02:34;16.55;;;15.55;;
23370;SDS011;11858;51.056;3.712;2023-04-07T13:05:01;17.42;;;16.33;;
23370;SDS011;11858;51.056;3.712;2023-04-07T13:07:28;18.00;;;16.90;;
23370;SDS011;11858;51.056;3.712;2023-04-07T13:09:53;17.83;;;16.73;;
23370;SDS011;11858;51.056;3.712;2023-04-07T13:12:21;22.75;;;16.95;;
23370;SDS011;11858;51.056;3.712;2023-04-07T13:14:47;16.85;;;15.85;;
23370;SDS011;11858;51.056;3.712;2023-04-07T13:17:13;16.88;;;15.88;;
23370;SDS011;11858;51.056;3.712;2023-04-07T13:19:39;19.88;;;16.90;;
23370;SDS011;11858;51.056;3.712;2023-04-07T13:22:05;17.85;;;16.75;;
23370;SDS011;11858;51.056;3.712;2023-04-07T13:24:31;17.27;;;16.27;;
23370;SDS011;11858;51.056;3.712;2023-04-07T13:26:57;17.85;;;16.75;;
23370;SDS011;11858;51.056;3.712;2023-04-07T13:29:23;17.63;;;16.52;;
23370;SDS011;11858;51.056;3.712;2023-04-07T13:31:49;18.77;;;17.58;;
23370;SDS011;11858;51.056;3.712;2023-04-07T13:34:15;17.95;;;16.85;;
23370;SDS011;11858;51.056;3.712;2023-04-07T13:36:41;17.13;;;16.13;;
23370;SDS011;11858;51.056;3.712;2023-04-07T13:39:07;17.40;;;16.30;;
23370;SDS011;11858;51.056;3.712;2023-04-07T13:41:33;17.90;;;16.80;;
23370;SDS011;11858;51.056;3.712;2023-04-07T13:43:59;17.33;;;16.23;;
23370;SDS011;11858;51.056;3.712;2023-04-07T13:46:25;17.98;;;16.88;;
23370;SDS011;11858;51.056;3.712;2023-04-07T13:48:52;17.77;;;16.67;;
23370;SDS011;11858;51.056;3.712;2023-04-07T13:51:17;18.08;;;16.95;;
23370;SDS011;11858;51.056;3.712;2023-04-07T13:53:44;17.23;;;16.20;;
23370;SDS011;11858;51.056;3.712;2023-04-07T13:56:10;17.33;;;16.25;;
23370;SDS011;11858;51.056;3.712;2023-04-07T13:58:36;17.48;;;16.38;;
23370;SDS011;11858;51.056;3.712;2023-04-07T14:01:02;17.38;;;16.27;;
23370;SDS011;11858;51.056;3.712;2023-04-07T14:03:28;21.60;;;20.30;;
23370;SDS011;11858;51.056;3.712;2023-04-07T14:05:54;20.52;;;19.33;;
23370;SDS011;11858;51.056;3.712;2023-04-07T14:08:25;21.95;;;20.65;;
23370;SDS011;11858;51.056;3.712;2023-04-07T14:10:51;20.60;;;19.40;;
23370;SDS011;11858;51.056;3.712;2023-04-07T14:13:18;19.83;;;18.67;;
23370;SDS011;11858;51.056;3.712;2023-04-07T14:15:44;21.15;;;19.95;;
23370;SDS011;11858;51.056;3.712;2023-04-07T14:18:09;18.17;;;17.17;;
23370;SDS011;11858;51.056;3.712;2023-04-07T14:20:35;21.02;;;19.83;;
23370;SDS011;11858;51.056;3.712;2023-04-07T14:23:01;22.20;;;20.90;;
23370;SDS011;11858;51.056;3.712;2023-04-07T14:25:27;20.92;;;19.73;;
23370;SDS011;11858;51.056;3.712;2023-04-07T14:27:53;21.17;;;19.90;;
23370;SDS011;11858;51.056;3.712;2023-04-07T14:30:18;22.02;;;20.73;;
23370;SDS011;11858;51.056;3.712;2023-04-07T14:32:44;21.70;;;20.40;;
23370;SDS011;11858;51.056;3.712;2023-04-07T14:35:10;19.48;;;18.38;;
23370;SDS011;11858;51.056;3.712;2023-04-07T14:37:36;20.33;;;19.13;;
23370;SDS011;11858;51.056;3.712;2023-04-07T14:40:03;21.02;;;19.83;;
23370;SDS011;11858;51.056;3.712;2023-04-07T14:42:29;19.63;;;18.52;;
23370;SDS011;11858;51.056;3.712;2023-04-07T14:44:55;19.13;;;18.02;;
23370;SDS011;11858;51.056;3.712;2023-04-07T14:47:23;20.75;;;19.55;;
23370;SDS011;11858;51.056;3.712;2023-04-07T14:49:49;20.65;;;19.45;;
23370;SDS011;11858;51.056;3.712;2023-04-07T14:52:15;21.27;;;20.08;;
23370;SDS011;11858;51.056;3.712;2023-04-07T14:54:41;20.35;;;19.17;;
23370;SDS011;11858;51.056;3.712;2023-04-07T14:57:07;21.38;;;20.17;;
23370;SDS011;11858;51.056;3.712;2023-04-07T14:59:32;19.85;;;18.67;;